createdAt,value
2018-12-08T00:01:10.239Z,100264.46
2018-12-08T00:03:39.100Z,100269.88
2018-12-08T00:06:07.941Z,100273.55
2018-12-08T00:08:36.775Z,100269.41
2018-12-08T00:11:05.628Z,100282.48
2018-12-08T00:13:34.431Z,100285.66
2018-12-08T00:16:03.248Z,100277.23
2018-12-08T00:18:32.103Z,100256.34
2018-12-08T00:21:00.989Z,100249.22
2018-12-08T00:23:29.816Z,100244.65
2018-12-08T00:25:58.638Z,100246.05
2018-12-08T00:28:27.475Z,100253.08
2018-12-08T00:31:07.841Z,100253.59
2018-12-08T00:33:36.683Z,100249.80
2018-12-08T00:36:05.563Z,100253.98
2018-12-08T00:38:34.614Z,100259.52
2018-12-08T00:41:03.400Z,100248.32
2018-12-08T00:43:32.248Z,100258.23
2018-12-08T00:46:01.085Z,100250.50
2018-12-08T00:48:29.916Z,100259.63
2018-12-08T00:50:58.727Z,100263.25
2018-12-08T00:53:27.591Z,100262.66
2018-12-08T00:55:57.221Z,100267.28
2018-12-08T00:58:26.032Z,100265.39
2018-12-08T01:00:54.899Z,100276.27
2018-12-08T01:03:23.678Z,100275.05
2018-12-08T01:05:52.471Z,100282.05
2018-12-08T01:08:21.266Z,100280.49
2018-12-08T01:10:50.077Z,100268.42
2018-12-08T01:13:18.876Z,100269.34
2018-12-08T01:15:47.680Z,100269.86
2018-12-08T01:18:16.479Z,100277.20
2018-12-08T01:20:45.301Z,100265.82
2018-12-08T01:23:14.144Z,100269.41
2018-12-08T01:25:42.958Z,100262.78
2018-12-08T01:28:12.484Z,100253.77
2018-12-08T01:30:41.280Z,100264.94
2018-12-08T01:33:10.134Z,100256.55
2018-12-08T01:35:38.929Z,100245.34
2018-12-08T01:38:07.746Z,100256.94
2018-12-08T01:40:36.578Z,100259.00
2018-12-08T01:43:05.387Z,100249.59
2018-12-08T01:45:34.214Z,100248.90
2018-12-08T01:48:03.108Z,100243.47
2018-12-08T01:50:32.029Z,100242.19
2018-12-08T01:53:00.851Z,100235.83
2018-12-08T01:55:29.734Z,100236.22
2018-12-08T01:57:59.827Z,100236.64
2018-12-08T02:00:28.660Z,100236.84
2018-12-08T02:02:57.567Z,100233.84
2018-12-08T02:05:26.370Z,100234.34
2018-12-08T02:07:55.258Z,100227.52
2018-12-08T02:10:23.964Z,100219.01
2018-12-08T02:12:52.771Z,100218.00
2018-12-08T02:15:21.580Z,100219.79
2018-12-08T02:17:50.398Z,100218.30
2018-12-08T02:20:19.207Z,100210.08
2018-12-08T02:22:48.026Z,100200.16
2018-12-08T02:25:16.818Z,100194.94
2018-12-08T02:27:45.731Z,100197.98
2018-12-08T02:30:14.543Z,100194.23
2018-12-08T02:32:43.322Z,100194.31
2018-12-08T02:35:12.790Z,100196.02
2018-12-08T02:37:41.596Z,100191.84
2018-12-08T02:40:10.391Z,100191.92
2018-12-08T02:42:39.293Z,100185.67
2018-12-08T02:45:08.092Z,100189.65
2018-12-08T02:47:36.934Z,100186.17
2018-12-08T02:50:05.878Z,100184.97
2018-12-08T02:52:34.757Z,100187.66
2018-12-08T02:55:03.592Z,100176.86
2018-12-08T02:57:32.959Z,100173.58
2018-12-08T03:00:01.768Z,100166.56
2018-12-08T03:02:30.594Z,100163.28
2018-12-08T03:04:59.416Z,100155.75
2018-12-08T03:07:28.183Z,100161.09
2018-12-08T03:09:57.061Z,100155.47
2018-12-08T03:12:25.863Z,100149.62
2018-12-08T03:14:54.746Z,100149.23
2018-12-08T03:17:23.523Z,100156.25
2018-12-08T03:19:52.322Z,100145.84
2018-12-08T03:22:21.128Z,100144.17
2018-12-08T03:24:49.933Z,100146.79
2018-12-08T03:27:18.796Z,100146.67
2018-12-08T03:29:47.854Z,100143.83
2018-12-08T03:32:16.730Z,100148.36
2018-12-08T03:34:45.538Z,100135.41
2018-12-08T03:37:14.350Z,100133.41
2018-12-08T03:39:43.279Z,100136.80
2018-12-08T03:42:12.961Z,100138.17
2018-12-08T03:44:41.786Z,100134.42
2018-12-08T03:47:12.525Z,100138.76
2018-12-08T03:49:41.324Z,100130.75
2018-12-08T03:52:11.305Z,100120.73
2018-12-08T03:54:40.294Z,100125.20
2018-12-08T03:57:08.935Z,100124.62
2018-12-08T03:59:37.744Z,100128.17
2018-12-08T04:02:06.601Z,100127.38
2018-12-08T04:04:35.427Z,100124.50
2018-12-08T04:07:04.236Z,100119.92
2018-12-08T04:09:33.040Z,100122.30
2018-12-08T04:12:01.859Z,100110.94
2018-12-08T04:14:30.722Z,100114.87
2018-12-08T04:16:59.512Z,100117.64
2018-12-08T04:19:28.335Z,100101.91
2018-12-08T04:21:57.171Z,100094.17
2018-12-08T04:24:26.058Z,100101.09
2018-12-08T04:26:54.906Z,100101.91
2018-12-08T04:29:23.692Z,100088.20
2018-12-08T04:31:52.542Z,100093.47
2018-12-08T04:34:21.335Z,100105.56
2018-12-08T04:36:50.135Z,100084.56
2018-12-08T04:39:18.950Z,100079.09
2018-12-08T04:41:47.763Z,100076.12
2018-12-08T04:44:16.586Z,100079.59
2018-12-08T04:46:45.491Z,100069.29
2018-12-08T04:49:14.326Z,100085.22
2018-12-08T04:51:43.235Z,100072.05
2018-12-08T04:54:12.051Z,100065.50
2018-12-08T04:56:40.871Z,100057.59
2018-12-08T04:59:10.071Z,100057.00
2018-12-08T05:01:38.940Z,100052.95
2018-12-08T05:04:07.790Z,100051.95
2018-12-08T05:06:36.626Z,100048.59
2018-12-08T05:09:07.039Z,100044.41
2018-12-08T05:11:35.874Z,100045.09
2018-12-08T05:14:04.682Z,100035.80
2018-12-08T05:16:33.504Z,100040.13
2018-12-08T05:19:02.349Z,100029.54
2018-12-08T05:21:31.240Z,100036.27
2018-12-08T05:24:00.188Z,100032.22
2018-12-08T05:26:28.979Z,100030.53
2018-12-08T05:28:57.806Z,100033.69
2018-12-08T05:31:26.662Z,100027.75
2018-12-08T05:33:55.959Z,100024.56
2018-12-08T05:36:24.775Z,100027.33
2018-12-08T05:38:53.610Z,100019.70
2018-12-08T05:41:22.420Z,100021.97
2018-12-08T05:43:51.277Z,100029.38
2018-12-08T05:46:20.071Z,100018.28
2018-12-08T05:48:48.891Z,100015.31
2018-12-08T05:51:17.694Z,100017.09
2018-12-08T05:53:46.543Z,100008.97
2018-12-08T05:56:15.343Z,100016.27
2018-12-08T05:58:44.186Z,100008.97
2018-12-08T06:01:12.986Z,100014.70
2018-12-08T06:03:41.784Z,100009.94
2018-12-08T06:06:10.680Z,100011.80
2018-12-08T06:08:39.455Z,100011.13
2018-12-08T06:11:08.327Z,99999.99
2018-12-08T06:13:37.231Z,100000.89
2018-12-08T06:16:06.015Z,100011.70
2018-12-08T06:18:34.848Z,100017.82
2018-12-08T06:21:03.681Z,100017.42
2018-12-08T06:23:32.479Z,100019.28
2018-12-08T06:26:10.007Z,100015.42
2018-12-08T06:28:40.040Z,100020.29
2018-12-08T06:31:09.826Z,100023.44
2018-12-08T06:33:38.742Z,100020.97
2018-12-08T06:36:07.558Z,100021.15
2018-12-08T06:38:36.423Z,100014.20
2018-12-08T06:41:05.254Z,100010.05
2018-12-08T06:43:34.131Z,100000.52
2018-12-08T06:46:02.951Z,100002.31
2018-12-08T06:48:31.775Z,100006.64
2018-12-08T06:51:00.591Z,100009.33
2018-12-08T06:53:29.983Z,100001.27
2018-12-08T06:55:59.123Z,100006.53
2018-12-08T06:58:28.731Z,100000.09
2018-12-08T07:00:57.531Z,100005.31
2018-12-08T07:03:26.367Z,99997.69
2018-12-08T07:05:55.191Z,99986.98
2018-12-08T07:08:24.766Z,99997.29
2018-12-08T07:10:53.571Z,99987.88
2018-12-08T07:13:22.462Z,99987.05
2018-12-08T07:15:51.263Z,99988.34
2018-12-08T07:18:20.075Z,99987.16
2018-12-08T07:20:48.906Z,99994.96
2018-12-08T07:23:18.125Z,99991.52
2018-12-08T07:25:47.442Z,99991.70
2018-12-08T07:28:16.330Z,99989.11
2018-12-08T07:30:45.110Z,99971.13
2018-12-08T07:33:13.952Z,99965.19
2018-12-08T07:35:42.862Z,99974.39
2018-12-08T07:38:11.695Z,99991.65
2018-12-08T07:40:40.568Z,99982.62
2018-12-08T07:43:09.372Z,99966.25
2018-12-08T07:45:38.162Z,99961.09
2018-12-08T07:48:06.992Z,99959.91
2018-12-08T07:50:35.771Z,99952.17
2018-12-08T07:53:04.627Z,99957.40
2018-12-08T07:55:33.399Z,99950.55
2018-12-08T07:58:02.228Z,99959.69
2018-12-08T08:00:31.015Z,99946.36
2018-12-08T08:03:06.474Z,99955.48
2018-12-08T08:05:35.811Z,99959.14
2018-12-08T08:08:04.633Z,99973.89
2018-12-08T08:10:33.519Z,99982.52
2018-12-08T08:13:05.304Z,99969.23
2018-12-08T08:15:34.114Z,99970.02
2018-12-08T08:18:02.928Z,99974.28
2018-12-08T08:20:31.766Z,99986.89
2018-12-08T08:23:00.555Z,99986.00
2018-12-08T08:25:29.333Z,99985.60
2018-12-08T08:27:59.291Z,99986.39
2018-12-08T08:30:28.171Z,99969.95
2018-12-08T08:32:57.357Z,99975.58
2018-12-08T08:35:26.216Z,99998.11
2018-12-08T08:37:55.601Z,99992.95
2018-12-08T08:40:24.454Z,99986.17
2018-12-08T08:42:53.423Z,99981.01
2018-12-08T08:45:22.235Z,99975.95
2018-12-08T08:47:51.049Z,99976.91
2018-12-08T08:50:20.768Z,99974.73
2018-12-08T08:52:49.584Z,99977.91
2018-12-08T08:55:18.390Z,99982.81
2018-12-08T08:57:47.192Z,99971.63
2018-12-08T09:00:16.038Z,99974.38
2018-12-08T09:02:44.880Z,99973.66
2018-12-08T09:05:13.719Z,99970.88
2018-12-08T09:07:42.584Z,99984.13
2018-12-08T09:10:12.540Z,99971.72
2018-12-08T09:12:41.339Z,99970.92
2018-12-08T09:15:10.179Z,99976.75
2018-12-08T09:17:39.021Z,99976.42
2018-12-08T09:20:10.157Z,99979.73
2018-12-08T09:22:39.356Z,99982.19
2018-12-08T09:25:09.152Z,99976.30
2018-12-08T09:27:37.971Z,99982.69
2018-12-08T09:30:08.998Z,99986.49
2018-12-08T09:32:37.784Z,99993.61
2018-12-08T09:35:06.629Z,99983.15
2018-12-08T09:37:35.446Z,99995.16
2018-12-08T09:40:04.751Z,99987.32
2018-12-08T09:42:33.552Z,99995.00
2018-12-08T09:45:02.387Z,100001.62
2018-12-08T09:47:31.233Z,100016.09
2018-12-08T09:50:00.046Z,100002.94
2018-12-08T09:52:28.838Z,100013.27
2018-12-08T09:54:57.692Z,100007.64
2018-12-08T09:57:26.519Z,100014.35
2018-12-08T09:59:55.327Z,100019.86
2018-12-08T10:02:24.199Z,100014.98
2018-12-08T10:04:53.019Z,100020.81
2018-12-08T10:07:21.904Z,100019.78
2018-12-08T10:09:50.687Z,100017.62
2018-12-08T10:12:19.503Z,100018.23
2018-12-08T10:14:48.304Z,100021.08
2018-12-08T10:17:17.103Z,100032.97
2018-12-08T10:19:45.924Z,100021.09
2018-12-08T10:22:14.744Z,100015.19
2018-12-08T10:24:43.558Z,100009.38
2018-12-08T10:27:13.391Z,100016.09
2018-12-08T10:29:42.207Z,100011.14
2018-12-08T10:32:11.257Z,99990.22
2018-12-08T10:34:40.128Z,100010.66
2018-12-08T10:37:08.946Z,99998.31
2018-12-08T10:39:37.747Z,100012.45
2018-12-08T10:42:06.576Z,100013.73
2018-12-08T10:44:35.402Z,100007.83
2018-12-08T10:47:04.210Z,100006.29
2018-12-08T10:49:33.023Z,100010.17
2018-12-08T10:52:01.828Z,100017.63
2018-12-08T10:54:30.665Z,100005.00
2018-12-08T10:56:59.469Z,100014.05
2018-12-08T10:59:28.267Z,100015.84
2018-12-08T11:02:01.284Z,100016.73
2018-12-08T11:04:30.441Z,100016.14
2018-12-08T11:06:59.216Z,100006.54
2018-12-08T11:09:28.077Z,100005.00
2018-12-08T11:11:56.883Z,99998.13
2018-12-08T11:14:25.951Z,100014.11
2018-12-08T11:16:54.812Z,100014.52
2018-12-08T11:19:23.619Z,100019.63
2018-12-08T11:21:52.470Z,100016.14
2018-12-08T11:24:21.264Z,100012.76
2018-12-08T11:26:50.059Z,100023.66
2018-12-08T11:29:18.887Z,100025.66
2018-12-08T11:31:47.675Z,100023.23
2018-12-08T11:34:16.500Z,100027.75
2018-12-08T11:36:49.516Z,100024.77
2018-12-08T11:39:14.819Z,100037.30
2018-12-08T11:41:44.214Z,100030.34
2018-12-08T11:44:13.048Z,100039.00
2018-12-08T11:46:42.607Z,100035.05
2018-12-08T11:49:11.502Z,100040.38
2018-12-08T11:51:40.330Z,100030.68
2018-12-08T11:54:09.138Z,100021.93
2018-12-08T11:56:37.939Z,100022.02
2018-12-08T11:59:06.719Z,100022.73
2018-12-08T12:01:35.527Z,100028.00
2018-12-08T12:04:04.337Z,100033.42
2018-12-08T12:06:33.130Z,100010.78
2018-12-08T12:09:01.995Z,100023.97
2018-12-08T12:11:30.888Z,100025.66
2018-12-08T12:13:59.876Z,100008.84
2018-12-08T12:16:28.666Z,100020.23
2018-12-08T12:18:57.483Z,100028.41
2018-12-08T12:21:26.323Z,100026.30
2018-12-08T12:23:55.152Z,100022.92
2018-12-08T12:26:24.011Z,100020.64
2018-12-08T12:28:52.863Z,100025.36
2018-12-08T12:31:21.671Z,100040.05
2018-12-08T12:33:50.468Z,100021.62
2018-12-08T12:36:19.286Z,100030.73
2018-12-08T12:38:48.131Z,100041.18
2018-12-08T12:41:16.960Z,100028.73
2018-12-08T12:43:45.976Z,100031.73
2018-12-08T12:46:14.807Z,100037.30
2018-12-08T12:48:43.642Z,100024.21
2018-12-08T12:51:12.464Z,100034.07
2018-12-08T12:53:41.283Z,100026.16
2018-12-08T12:56:10.427Z,100044.42
2018-12-08T12:58:39.274Z,100040.69
2018-12-08T13:01:08.146Z,100046.11
2018-12-08T13:03:37.074Z,100033.27
2018-12-08T13:06:05.950Z,100041.03
2018-12-08T13:08:34.951Z,100046.20
2018-12-08T13:11:03.780Z,100038.50
2018-12-08T13:13:32.570Z,100034.22
2018-12-08T13:16:01.388Z,100029.04
2018-12-08T13:18:30.911Z,100037.30
2018-12-08T13:20:59.729Z,100037.70
2018-12-08T13:23:28.595Z,100036.89
2018-12-08T13:26:04.134Z,100042.13
2018-12-08T13:28:32.965Z,100040.93
2018-12-08T13:31:02.792Z,100030.64
2018-12-08T13:33:31.670Z,100027.59
2018-12-08T13:36:01.807Z,100035.81
2018-12-08T13:38:33.046Z,100008.18
2018-12-08T13:41:03.637Z,100023.36
2018-12-08T13:43:32.480Z,100037.59
2018-12-08T13:46:01.308Z,100023.70
2018-12-08T13:48:32.423Z,100026.60
2018-12-08T13:51:01.961Z,100034.77
2018-12-08T13:53:36.701Z,100036.64
2018-12-08T13:55:59.873Z,100028.14
2018-12-08T13:58:28.751Z,100036.39
2018-12-08T14:00:57.586Z,100036.30
2018-12-08T14:03:26.430Z,100026.84
2018-12-08T14:05:55.345Z,100022.07
2018-12-08T14:08:24.268Z,100021.03
2018-12-08T14:10:53.108Z,100018.53
2018-12-08T14:13:21.937Z,100024.56
2018-12-08T14:15:50.791Z,100014.22
2018-12-08T14:18:19.603Z,100015.51
2018-12-08T14:20:48.417Z,100008.98
2018-12-08T14:23:17.241Z,100009.38
2018-12-08T14:25:46.141Z,100022.72
2018-12-08T14:28:14.975Z,100012.86
2018-12-08T14:30:43.795Z,100014.22
2018-12-08T14:33:15.342Z,100018.98
2018-12-08T14:35:42.679Z,100018.53
2018-12-08T14:38:13.253Z,100005.59
2018-12-08T14:40:42.699Z,100016.66
2018-12-08T14:43:11.542Z,100007.53
2018-12-08T14:45:40.394Z,100018.29
2018-12-08T14:48:09.269Z,100007.84
2018-12-08T14:50:39.082Z,100018.20
2018-12-08T14:53:07.922Z,100020.88
2018-12-08T14:55:36.882Z,100014.72
2018-12-08T14:58:05.720Z,100021.19
2018-12-08T15:00:34.575Z,100015.95
2018-12-08T15:03:03.427Z,100008.68
2018-12-08T15:05:32.231Z,100008.68
2018-12-08T15:08:01.050Z,100010.13
2018-12-08T15:10:29.903Z,100012.81
2018-12-08T15:12:58.713Z,100002.38
2018-12-08T15:15:27.504Z,100002.38
2018-12-08T15:17:56.338Z,99995.75
2018-12-08T15:20:25.173Z,100005.76
2018-12-08T15:22:53.964Z,100002.38
2018-12-08T15:25:22.871Z,100004.16
2018-12-08T15:27:51.683Z,99989.44
2018-12-08T15:30:20.513Z,99993.41
2018-12-08T15:32:49.376Z,99983.45
2018-12-08T15:35:18.166Z,99975.20
2018-12-08T15:37:46.983Z,99969.13
2018-12-08T15:40:15.822Z,99966.95
2018-12-08T15:42:44.716Z,99968.58
2018-12-08T15:45:13.526Z,99957.74
2018-12-08T15:47:42.986Z,99947.79
2018-12-08T15:50:13.552Z,99953.86
2018-12-08T15:52:42.990Z,99949.03
2018-12-08T15:55:12.250Z,99953.80
2018-12-08T15:57:41.076Z,99941.67
2018-12-08T16:00:11.699Z,99938.13
2018-12-08T16:02:41.391Z,99937.64
2018-12-08T16:05:10.731Z,99925.50
2018-12-08T16:07:40.595Z,99932.08
2018-12-08T16:10:10.170Z,99930.79
2018-12-08T16:12:46.992Z,99915.77
2018-12-08T16:15:15.838Z,99910.05
2018-12-08T16:17:44.758Z,99910.05
2018-12-08T16:20:13.933Z,99892.90
2018-12-08T16:22:43.843Z,99893.94
2018-12-08T16:25:12.745Z,99876.88
2018-12-08T16:27:41.636Z,99869.35
2018-12-08T16:30:23.116Z,99860.45
2018-12-08T16:32:52.985Z,99862.23
2018-12-08T16:35:21.976Z,99847.84
2018-12-08T16:37:56.853Z,99838.09
2018-12-08T16:40:19.643Z,99832.19
2018-12-08T16:42:48.735Z,99836.42
2018-12-08T16:45:20.817Z,99821.33
2018-12-08T16:47:49.699Z,99812.53
2018-12-08T16:50:20.856Z,99806.06
2018-12-08T16:52:51.823Z,99794.69
2018-12-08T16:55:20.635Z,99791.95
2018-12-08T17:00:43.690Z,99766.34
2018-12-08T17:03:16.530Z,99772.33
2018-12-08T17:05:46.168Z,99762.52
2018-12-08T17:08:15.158Z,99743.80
2018-12-08T17:10:43.982Z,99738.84
2018-12-08T17:13:12.830Z,99726.05
2018-12-08T17:15:41.661Z,99731.36
2018-12-08T17:18:14.344Z,99725.78
2018-12-08T17:20:44.287Z,99717.70
2018-12-08T17:23:13.116Z,99697.05
2018-12-08T17:25:41.917Z,99692.27
2018-12-08T17:28:10.763Z,99688.87
2018-12-08T17:30:41.333Z,99685.48
2018-12-08T17:33:10.147Z,99686.51
2018-12-08T17:35:39.067Z,99680.09
2018-12-08T17:38:08.171Z,99673.25
2018-12-08T17:40:36.996Z,99680.20
2018-12-08T17:43:05.847Z,99672.44
2018-12-08T17:45:34.687Z,99670.26
2018-12-08T17:48:03.629Z,99665.97
2018-12-08T17:50:32.459Z,99668.44
2018-12-08T17:53:01.275Z,99644.70
2018-12-08T17:55:30.109Z,99610.97
2018-12-08T17:57:58.923Z,99613.97
2018-12-08T18:00:27.747Z,99606.95
2018-12-08T18:02:57.332Z,99607.84
2018-12-08T18:05:26.249Z,99614.32
2018-12-08T18:07:55.053Z,99601.30
2018-12-08T18:10:23.867Z,99608.17
2018-12-08T18:12:52.717Z,99607.72
2018-12-08T18:15:21.524Z,99592.59
2018-12-08T18:17:50.327Z,99583.95
2018-12-08T18:20:19.375Z,99580.06
2018-12-08T18:22:48.482Z,99563.16
2018-12-08T18:25:17.140Z,99559.36
2018-12-08T18:27:47.184Z,99527.50
2018-12-08T18:30:16.151Z,99507.61
2018-12-08T18:32:44.968Z,99503.25
2018-12-08T18:35:14.479Z,99486.91
2018-12-08T18:37:43.338Z,99480.97
2018-12-08T18:40:12.239Z,99467.63
2018-12-08T18:42:41.087Z,99468.23
2018-12-08T18:45:09.930Z,99476.81
2018-12-08T18:47:38.752Z,99469.13
2018-12-08T18:50:09.366Z,99430.30
2018-12-08T18:52:38.314Z,99424.31
2018-12-08T18:55:07.144Z,99421.29
2018-12-08T18:57:35.972Z,99419.63
2018-12-08T19:00:07.207Z,99411.94
2018-12-08T19:02:36.167Z,99402.40
2018-12-08T19:05:05.384Z,99416.70
2018-12-08T19:07:34.207Z,99390.83
2018-12-08T19:10:03.048Z,99381.48
2018-12-08T19:12:31.854Z,99379.83
2018-12-08T19:15:00.724Z,99362.67
2018-12-08T19:17:29.535Z,99360.08
2018-12-08T19:19:58.365Z,99355.02
2018-12-08T19:22:27.173Z,99348.95
2018-12-08T19:24:55.988Z,99328.66
2018-12-08T19:27:24.852Z,99316.64
2018-12-08T19:29:53.700Z,99315.30
2018-12-08T19:32:22.538Z,99301.11
2018-12-08T19:34:51.333Z,99290.75
2018-12-08T19:37:20.106Z,99288.02
2018-12-08T19:39:49.067Z,99296.19
2018-12-08T19:42:17.828Z,99284.43
2018-12-08T19:44:46.635Z,99295.78
2018-12-08T19:47:15.483Z,99275.22
2018-12-08T19:49:44.326Z,99278.91
2018-12-08T19:52:13.204Z,99273.91
2018-12-08T19:54:42.004Z,99265.52
2018-12-08T19:57:10.881Z,99255.91
2018-12-08T19:59:40.705Z,99257.97
2018-12-08T20:02:09.533Z,99260.97
2018-12-08T20:04:38.330Z,99244.67
2018-12-08T20:07:07.223Z,99245.63
2018-12-08T20:09:36.059Z,99240.50
2018-12-08T20:12:04.958Z,99234.52
2018-12-08T20:14:34.212Z,99235.44
2018-12-08T20:17:03.098Z,99231.70
2018-12-08T20:19:31.930Z,99230.94
2018-12-08T20:22:00.723Z,99213.34
2018-12-08T20:24:31.026Z,99214.78
2018-12-08T20:27:01.183Z,99207.09
2018-12-08T20:29:30.666Z,99195.14
2018-12-08T20:31:59.496Z,99185.71
2018-12-08T20:34:28.359Z,99179.31
2018-12-08T20:36:57.219Z,99169.47
2018-12-08T20:39:26.076Z,99165.22
2018-12-08T20:41:54.921Z,99154.05
2018-12-08T20:44:23.823Z,99159.30
2018-12-08T20:46:52.630Z,99136.81
2018-12-08T20:49:21.535Z,99142.98
2018-12-08T20:51:50.501Z,99141.69
2018-12-08T20:54:19.464Z,99148.27
2018-12-08T20:56:48.327Z,99136.69
2018-12-08T20:59:17.163Z,99137.54
2018-12-08T21:01:45.995Z,99131.06
2018-12-08T21:04:16.170Z,99136.31
2018-12-08T21:06:45.253Z,99134.20
2018-12-08T21:09:14.442Z,99132.94
2018-12-08T21:11:43.345Z,99131.30
2018-12-08T21:14:12.203Z,99122.28
2018-12-08T21:16:41.746Z,99125.81
2018-12-08T21:19:10.675Z,99124.97
2018-12-08T21:21:39.722Z,99111.27
2018-12-08T21:24:08.634Z,99103.13
2018-12-08T21:26:37.668Z,99114.88
2018-12-08T21:29:06.506Z,99100.30
2018-12-08T21:31:35.459Z,99102.88
2018-12-08T21:34:05.294Z,99107.59
2018-12-08T21:36:34.187Z,99112.77
2018-12-08T21:39:03.243Z,99083.39
2018-12-08T21:41:32.519Z,99099.34
2018-12-08T21:44:02.480Z,99091.95
2018-12-08T21:46:31.388Z,99100.13
2018-12-08T21:49:00.193Z,99105.23
2018-12-08T21:51:29.039Z,99110.42
2018-12-08T21:53:58.452Z,99095.84
2018-12-08T21:56:27.258Z,99104.08
2018-12-08T21:58:56.057Z,99116.14
2018-12-08T22:01:24.906Z,99111.38
2018-12-08T22:03:54.251Z,99096.24
2018-12-08T22:06:23.152Z,99108.30
2018-12-08T22:08:51.955Z,99098.77
2018-12-08T22:11:21.080Z,99092.67
2018-12-08T22:13:50.011Z,99101.73
2018-12-08T22:16:19.918Z,99096.48
2018-12-08T22:18:48.848Z,99099.52
2018-12-08T22:21:17.671Z,99150.01
2018-12-08T22:23:46.787Z,99185.60
2018-12-08T22:26:15.595Z,99181.25
2018-12-08T22:28:44.468Z,99182.19
2018-12-08T22:31:14.417Z,99191.53
2018-12-08T22:33:43.408Z,99168.69
2018-12-08T22:36:13.770Z,99164.55
2018-12-08T22:38:42.606Z,99159.52
2018-12-08T22:41:12.014Z,99172.25
2018-12-08T22:43:40.897Z,99151.86
2018-12-08T22:46:09.691Z,99150.93
2018-12-08T22:48:38.631Z,99149.16
2018-12-08T22:51:09.311Z,99146.09
2018-12-08T22:53:38.167Z,99143.35
2018-12-08T22:56:07.014Z,99147.55
2018-12-08T22:58:35.886Z,99151.03
2018-12-08T23:01:04.738Z,99150.10
2018-12-08T23:03:34.315Z,99141.91
2018-12-08T23:06:03.228Z,99139.40
2018-12-08T23:08:32.059Z,99122.08
2018-12-08T23:11:01.482Z,99132.02
2018-12-08T23:13:29.857Z,99127.77
2018-12-08T23:15:58.802Z,99139.47
2018-12-08T23:18:27.635Z,99139.19
2018-12-08T23:20:57.390Z,99154.69
2018-12-08T23:23:26.206Z,99154.25
2018-12-08T23:25:55.031Z,99131.77
2018-12-08T23:28:24.860Z,99133.63
2018-12-08T23:30:53.929Z,99134.16
2018-12-08T23:33:22.808Z,99125.70
2018-12-08T23:35:51.744Z,99130.59
2018-12-08T23:38:20.718Z,99132.06
2018-12-08T23:40:49.548Z,99120.14
2018-12-08T23:43:18.393Z,99122.44
2018-12-08T23:45:47.223Z,99129.42
2018-12-08T23:48:16.582Z,99145.77
2018-12-08T23:50:46.073Z,99177.01
2018-12-08T23:53:14.887Z,99171.72
2018-12-08T23:55:44.300Z,99168.66
2018-12-08T23:58:13.191Z,99168.66
